sensor_id;sensor_type;location;lat;lon;timestamp;P1;durP1;ratioP1;P2;durP2;ratioP2
64842;SDS011;51310;52.198;5.422;2023-02-22T00:01:29;41.35;;;21.50;;
64842;SDS011;51310;52.198;5.422;2023-02-22T00:04:00;37.70;;;20.37;;
64842;SDS011;51310;52.198;5.422;2023-02-22T00:06:27;39.15;;;19.63;;
64842;SDS011;51310;52.198;5.422;2023-02-22T00:08:55;36.13;;;19.80;;
64842;SDS011;51310;52.198;5.422;2023-02-22T00:11:22;36.08;;;18.45;;
64842;SDS011;51310;52.198;5.422;2023-02-22T00:13:48;34.47;;;18.23;;
64842;SDS011;51310;52.198;5.422;2023-02-22T00:16:15;36.88;;;19.48;;
64842;SDS011;51310;52.198;5.422;2023-02-22T00:18:46;34.87;;;19.30;;
64842;SDS011;51310;52.198;5.422;2023-02-22T00:21:13;34.58;;;19.27;;
64842;SDS011;51310;52.198;5.422;2023-02-22T00:23:41;33.40;;;17.85;;
64842;SDS011;51310;52.198;5.422;2023-02-22T00:26:13;33.50;;;16.88;;
64842;SDS011;51310;52.198;5.422;2023-02-22T00:28:45;33.65;;;17.00;;
64842;SDS011;51310;52.198;5.422;2023-02-22T00:31:14;33.33;;;17.88;;
64842;SDS011;51310;52.198;5.422;2023-02-22T00:33:40;35.40;;;17.87;;
64842;SDS011;51310;52.198;5.422;2023-02-22T00:36:06;35.92;;;18.55;;
64842;SDS011;51310;52.198;5.422;2023-02-22T00:38:33;33.55;;;18.05;;
64842;SDS011;51310;52.198;5.422;2023-02-22T00:40:59;35.17;;;18.08;;
64842;SDS011;51310;52.198;5.422;2023-02-22T00:43:25;32.63;;;16.83;;
64842;SDS011;51310;52.198;5.422;2023-02-22T00:45:51;32.50;;;16.83;;
64842;SDS011;51310;52.198;5.422;2023-02-22T00:48:18;34.90;;;16.98;;
64842;SDS011;51310;52.198;5.422;2023-02-22T00:50:44;35.77;;;17.00;;
64842;SDS011;51310;52.198;5.422;2023-02-22T00:53:12;31.52;;;17.13;;
64842;SDS011;51310;52.198;5.422;2023-02-22T00:55:39;30.63;;;16.67;;
64842;SDS011;51310;52.198;5.422;2023-02-22T00:58:05;29.77;;;16.25;;
64842;SDS011;51310;52.198;5.422;2023-02-22T01:03:02;33.27;;;16.87;;
64842;SDS011;51310;52.198;5.422;2023-02-22T01:05:30;30.50;;;16.05;;
64842;SDS011;51310;52.198;5.422;2023-02-22T01:07:57;30.73;;;16.38;;
64842;SDS011;51310;52.198;5.422;2023-02-22T01:10:26;30.80;;;16.23;;
64842;SDS011;51310;52.198;5.422;2023-02-22T01:12:54;31.27;;;16.42;;
64842;SDS011;51310;52.198;5.422;2023-02-22T01:15:23;33.10;;;16.90;;
64842;SDS011;51310;52.198;5.422;2023-02-22T01:17:53;29.70;;;16.35;;
64842;SDS011;51310;52.198;5.422;2023-02-22T01:20:20;29.07;;;16.47;;
64842;SDS011;51310;52.198;5.422;2023-02-22T01:22:47;29.73;;;15.17;;
64842;SDS011;51310;52.198;5.422;2023-02-22T01:25:18;31.63;;;17.13;;
64842;SDS011;51310;52.198;5.422;2023-02-22T01:27:49;33.00;;;17.27;;
64842;SDS011;51310;52.198;5.422;2023-02-22T01:30:22;28.80;;;16.10;;
64842;SDS011;51310;52.198;5.422;2023-02-22T01:32:51;33.28;;;17.38;;
64842;SDS011;51310;52.198;5.422;2023-02-22T01:35:21;29.45;;;16.10;;
64842;SDS011;51310;52.198;5.422;2023-02-22T01:37:55;32.28;;;16.65;;
64842;SDS011;51310;52.198;5.422;2023-02-22T01:40:26;35.45;;;17.67;;
64842;SDS011;51310;52.198;5.422;2023-02-22T01:42:56;33.55;;;17.20;;
64842;SDS011;51310;52.198;5.422;2023-02-22T01:47:57;33.53;;;17.52;;
64842;SDS011;51310;52.198;5.422;2023-02-22T01:50:39;29.97;;;16.00;;
64842;SDS011;51310;52.198;5.422;2023-02-22T01:53:13;30.57;;;16.90;;
64842;SDS011;51310;52.198;5.422;2023-02-22T01:55:43;30.48;;;16.83;;
64842;SDS011;51310;52.198;5.422;2023-02-22T01:58:10;29.98;;;16.35;;
64842;SDS011;51310;52.198;5.422;2023-02-22T02:00:40;31.77;;;17.27;;
64842;SDS011;51310;52.198;5.422;2023-02-22T02:03:11;29.98;;;16.30;;
64842;SDS011;51310;52.198;5.422;2023-02-22T02:05:45;31.05;;;17.42;;
64842;SDS011;51310;52.198;5.422;2023-02-22T02:08:16;30.60;;;15.60;;
64842;SDS011;51310;52.198;5.422;2023-02-22T02:11:00;29.20;;;16.30;;
64842;SDS011;51310;52.198;5.422;2023-02-22T02:13:29;30.73;;;16.90;;
64842;SDS011;51310;52.198;5.422;2023-02-22T02:15:55;28.77;;;16.20;;
64842;SDS011;51310;52.198;5.422;2023-02-22T02:18:21;29.30;;;15.65;;
64842;SDS011;51310;52.198;5.422;2023-02-22T02:33:08;28.83;;;15.60;;
64842;SDS011;51310;52.198;5.422;2023-02-22T02:43:41;31.63;;;16.38;;
64842;SDS011;51310;52.198;5.422;2023-02-22T02:49:04;29.48;;;16.35;;
64842;SDS011;51310;52.198;5.422;2023-02-22T02:51:41;31.10;;;16.80;;
64842;SDS011;51310;52.198;5.422;2023-02-22T02:54:14;30.63;;;16.20;;
64842;SDS011;51310;52.198;5.422;2023-02-22T02:56:41;31.33;;;16.77;;
64842;SDS011;51310;52.198;5.422;2023-02-22T03:05:26;32.58;;;17.27;;
64842;SDS011;51310;52.198;5.422;2023-02-22T03:08:29;35.78;;;18.33;;
64842;SDS011;51310;52.198;5.422;2023-02-22T03:11:12;30.63;;;17.33;;
64842;SDS011;51310;52.198;5.422;2023-02-22T03:13:57;31.20;;;17.45;;
64842;SDS011;51310;52.198;5.422;2023-02-22T03:24:55;35.63;;;18.42;;
64842;SDS011;51310;52.198;5.422;2023-02-22T03:30:24;39.13;;;19.08;;
64842;SDS011;51310;52.198;5.422;2023-02-22T03:33:06;37.58;;;18.98;;
64842;SDS011;51310;52.198;5.422;2023-02-22T03:35:47;37.95;;;20.15;;
64842;SDS011;51310;52.198;5.422;2023-02-22T03:38:21;38.90;;;19.27;;
64842;SDS011;51310;52.198;5.422;2023-02-22T03:40:53;38.83;;;19.92;;
64842;SDS011;51310;52.198;5.422;2023-02-22T03:43:24;38.67;;;19.83;;
64842;SDS011;51310;52.198;5.422;2023-02-22T03:46:02;41.65;;;21.17;;
64842;SDS011;51310;52.198;5.422;2023-02-22T03:49:05;40.22;;;21.27;;
64842;SDS011;51310;52.198;5.422;2023-02-22T03:51:42;38.95;;;20.90;;
64842;SDS011;51310;52.198;5.422;2023-02-22T03:54:08;43.23;;;20.40;;
64842;SDS011;51310;52.198;5.422;2023-02-22T03:56:44;42.40;;;20.80;;
64842;SDS011;51310;52.198;5.422;2023-02-22T03:59:18;40.50;;;20.77;;
64842;SDS011;51310;52.198;5.422;2023-02-22T04:01:51;45.15;;;22.85;;
64842;SDS011;51310;52.198;5.422;2023-02-22T04:04:18;43.65;;;21.23;;
64842;SDS011;51310;52.198;5.422;2023-02-22T04:06:45;43.33;;;21.67;;
64842;SDS011;51310;52.198;5.422;2023-02-22T04:09:12;43.95;;;21.27;;
64842;SDS011;51310;52.198;5.422;2023-02-22T04:11:39;38.35;;;19.50;;
64842;SDS011;51310;52.198;5.422;2023-02-22T04:14:04;44.13;;;21.20;;
64842;SDS011;51310;52.198;5.422;2023-02-22T04:16:30;46.50;;;21.98;;
64842;SDS011;51310;52.198;5.422;2023-02-22T04:18:56;45.78;;;22.17;;
64842;SDS011;51310;52.198;5.422;2023-02-22T04:21:22;42.83;;;21.58;;
64842;SDS011;51310;52.198;5.422;2023-02-22T04:23:47;50.20;;;22.98;;
64842;SDS011;51310;52.198;5.422;2023-02-22T04:26:13;45.15;;;21.67;;
64842;SDS011;51310;52.198;5.422;2023-02-22T04:28:39;46.50;;;22.15;;
64842;SDS011;51310;52.198;5.422;2023-02-22T04:31:05;44.88;;;22.20;;
64842;SDS011;51310;52.198;5.422;2023-02-22T04:33:30;43.10;;;22.95;;
64842;SDS011;51310;52.198;5.422;2023-02-22T04:35:56;47.67;;;23.33;;
64842;SDS011;51310;52.198;5.422;2023-02-22T04:38:23;49.13;;;22.67;;
64842;SDS011;51310;52.198;5.422;2023-02-22T04:40:51;47.90;;;22.33;;
64842;SDS011;51310;52.198;5.422;2023-02-22T04:43:17;46.88;;;22.67;;
64842;SDS011;51310;52.198;5.422;2023-02-22T04:45:43;47.60;;;22.15;;
64842;SDS011;51310;52.198;5.422;2023-02-22T04:48:09;44.20;;;21.53;;
64842;SDS011;51310;52.198;5.422;2023-02-22T04:50:35;46.03;;;23.13;;
64842;SDS011;51310;52.198;5.422;2023-02-22T04:53:01;48.90;;;22.75;;
64842;SDS011;51310;52.198;5.422;2023-02-22T04:55:27;44.53;;;21.27;;
64842;SDS011;51310;52.198;5.422;2023-02-22T04:57:54;53.17;;;21.58;;
64842;SDS011;51310;52.198;5.422;2023-02-22T05:00:21;51.60;;;22.30;;
64842;SDS011;51310;52.198;5.422;2023-02-22T05:02:48;51.28;;;22.65;;
64842;SDS011;51310;52.198;5.422;2023-02-22T05:05:15;47.90;;;22.73;;
64842;SDS011;51310;52.198;5.422;2023-02-22T05:07:45;49.53;;;23.40;;
64842;SDS011;51310;52.198;5.422;2023-02-22T05:10:12;53.67;;;23.75;;
64842;SDS011;51310;52.198;5.422;2023-02-22T05:12:38;53.13;;;23.92;;
64842;SDS011;51310;52.198;5.422;2023-02-22T05:15:04;53.20;;;24.05;;
64842;SDS011;51310;52.198;5.422;2023-02-22T05:17:31;51.63;;;22.10;;
64842;SDS011;51310;52.198;5.422;2023-02-22T05:19:58;52.95;;;21.67;;
64842;SDS011;51310;52.198;5.422;2023-02-22T05:22:23;54.67;;;23.35;;
64842;SDS011;51310;52.198;5.422;2023-02-22T05:24:49;52.08;;;23.88;;
64842;SDS011;51310;52.198;5.422;2023-02-22T05:27:18;55.38;;;23.85;;
64842;SDS011;51310;52.198;5.422;2023-02-22T05:29:44;56.13;;;22.92;;
64842;SDS011;51310;52.198;5.422;2023-02-22T05:32:10;49.70;;;22.23;;
64842;SDS011;51310;52.198;5.422;2023-02-22T05:34:38;55.78;;;23.63;;
64842;SDS011;51310;52.198;5.422;2023-02-22T05:37:04;58.70;;;24.83;;
64842;SDS011;51310;52.198;5.422;2023-02-22T05:39:30;57.55;;;25.23;;
64842;SDS011;51310;52.198;5.422;2023-02-22T05:41:56;57.70;;;25.07;;
64842;SDS011;51310;52.198;5.422;2023-02-22T05:44:22;60.83;;;25.40;;
64842;SDS011;51310;52.198;5.422;2023-02-22T05:46:48;61.38;;;24.45;;
64842;SDS011;51310;52.198;5.422;2023-02-22T05:49:14;60.58;;;24.80;;
64842;SDS011;51310;52.198;5.422;2023-02-22T05:51:40;63.05;;;26.00;;
64842;SDS011;51310;52.198;5.422;2023-02-22T05:54:06;65.70;;;26.77;;
64842;SDS011;51310;52.198;5.422;2023-02-22T05:56:32;63.35;;;25.38;;
64842;SDS011;51310;52.198;5.422;2023-02-22T05:58:57;64.43;;;27.00;;
64842;SDS011;51310;52.198;5.422;2023-02-22T06:01:24;71.38;;;27.45;;
64842;SDS011;51310;52.198;5.422;2023-02-22T06:03:51;62.83;;;27.60;;
64842;SDS011;51310;52.198;5.422;2023-02-22T06:06:17;70.32;;;26.42;;
64842;SDS011;51310;52.198;5.422;2023-02-22T06:08:44;70.47;;;27.08;;
64842;SDS011;51310;52.198;5.422;2023-02-22T06:11:10;70.72;;;26.15;;
64842;SDS011;51310;52.198;5.422;2023-02-22T06:13:37;66.85;;;28.85;;
64842;SDS011;51310;52.198;5.422;2023-02-22T06:16:04;65.35;;;27.40;;
64842;SDS011;51310;52.198;5.422;2023-02-22T06:18:30;69.82;;;28.38;;
64842;SDS011;51310;52.198;5.422;2023-02-22T06:20:56;69.80;;;27.67;;
64842;SDS011;51310;52.198;5.422;2023-02-22T06:23:23;69.78;;;27.02;;
64842;SDS011;51310;52.198;5.422;2023-02-22T06:25:50;66.97;;;25.80;;
64842;SDS011;51310;52.198;5.422;2023-02-22T06:28:16;65.63;;;26.67;;
64842;SDS011;51310;52.198;5.422;2023-02-22T06:30:41;69.13;;;26.87;;
64842;SDS011;51310;52.198;5.422;2023-02-22T06:33:08;72.77;;;27.57;;
64842;SDS011;51310;52.198;5.422;2023-02-22T06:35:34;62.85;;;25.33;;
64842;SDS011;51310;52.198;5.422;2023-02-22T06:38:00;64.38;;;26.60;;
64842;SDS011;51310;52.198;5.422;2023-02-22T06:40:26;62.25;;;24.10;;
64842;SDS011;51310;52.198;5.422;2023-02-22T06:42:56;67.00;;;26.38;;
64842;SDS011;51310;52.198;5.422;2023-02-22T06:45:23;71.38;;;26.38;;
64842;SDS011;51310;52.198;5.422;2023-02-22T06:47:49;67.70;;;26.35;;
64842;SDS011;51310;52.198;5.422;2023-02-22T06:50:18;70.73;;;26.47;;
64842;SDS011;51310;52.198;5.422;2023-02-22T06:52:50;68.87;;;26.80;;
64842;SDS011;51310;52.198;5.422;2023-02-22T06:55:20;76.57;;;28.60;;
64842;SDS011;51310;52.198;5.422;2023-02-22T06:57:50;74.72;;;28.08;;
64842;SDS011;51310;52.198;5.422;2023-02-22T07:00:17;77.73;;;28.90;;
64842;SDS011;51310;52.198;5.422;2023-02-22T07:02:45;79.47;;;29.10;;
64842;SDS011;51310;52.198;5.422;2023-02-22T07:05:12;76.82;;;29.92;;
64842;SDS011;51310;52.198;5.422;2023-02-22T07:07:41;79.97;;;29.63;;
64842;SDS011;51310;52.198;5.422;2023-02-22T07:10:14;84.72;;;30.77;;
64842;SDS011;51310;52.198;5.422;2023-02-22T07:12:52;74.93;;;27.88;;
64842;SDS011;51310;52.198;5.422;2023-02-22T07:15:19;76.03;;;28.13;;
64842;SDS011;51310;52.198;5.422;2023-02-22T07:17:48;67.55;;;25.70;;
64842;SDS011;51310;52.198;5.422;2023-02-22T07:20:16;74.22;;;27.05;;
64842;SDS011;51310;52.198;5.422;2023-02-22T07:22:44;65.78;;;25.50;;
64842;SDS011;51310;52.198;5.422;2023-02-22T07:25:11;68.90;;;26.10;;
64842;SDS011;51310;52.198;5.422;2023-02-22T07:27:40;69.20;;;26.90;;
64842;SDS011;51310;52.198;5.422;2023-02-22T07:30:07;66.67;;;25.50;;
64842;SDS011;51310;52.198;5.422;2023-02-22T07:32:54;71.50;;;28.70;;
64842;SDS011;51310;52.198;5.422;2023-02-22T07:35:24;72.00;;;26.75;;
64842;SDS011;51310;52.198;5.422;2023-02-22T07:38:02;73.17;;;26.63;;
64842;SDS011;51310;52.198;5.422;2023-02-22T07:40:31;73.30;;;28.97;;
64842;SDS011;51310;52.198;5.422;2023-02-22T07:43:02;74.47;;;28.50;;
64842;SDS011;51310;52.198;5.422;2023-02-22T07:45:39;82.15;;;29.73;;
64842;SDS011;51310;52.198;5.422;2023-02-22T07:48:06;74.70;;;29.30;;
64842;SDS011;51310;52.198;5.422;2023-02-22T07:50:33;72.28;;;27.95;;
64842;SDS011;51310;52.198;5.422;2023-02-22T07:53:00;72.30;;;29.33;;
64842;SDS011;51310;52.198;5.422;2023-02-22T07:55:29;78.30;;;30.17;;
64842;SDS011;51310;52.198;5.422;2023-02-22T07:57:58;76.13;;;29.73;;
64842;SDS011;51310;52.198;5.422;2023-02-22T08:00:31;77.30;;;30.42;;
64842;SDS011;51310;52.198;5.422;2023-02-22T08:03:04;77.30;;;30.40;;
64842;SDS011;51310;52.198;5.422;2023-02-22T08:05:37;69.60;;;27.93;;
64842;SDS011;51310;52.198;5.422;2023-02-22T08:08:05;71.88;;;29.25;;
64842;SDS011;51310;52.198;5.422;2023-02-22T08:10:32;74.18;;;29.90;;
64842;SDS011;51310;52.198;5.422;2023-02-22T08:12:59;65.65;;;27.88;;
64842;SDS011;51310;52.198;5.422;2023-02-22T08:15:27;59.85;;;26.15;;
64842;SDS011;51310;52.198;5.422;2023-02-22T08:17:56;64.68;;;26.83;;
64842;SDS011;51310;52.198;5.422;2023-02-22T08:20:24;69.65;;;28.50;;
64842;SDS011;51310;52.198;5.422;2023-02-22T08:22:50;68.77;;;28.50;;
64842;SDS011;51310;52.198;5.422;2023-02-22T08:25:16;67.05;;;27.55;;
64842;SDS011;51310;52.198;5.422;2023-02-22T08:27:45;70.45;;;27.92;;
64842;SDS011;51310;52.198;5.422;2023-02-22T08:30:14;71.60;;;27.98;;
64842;SDS011;51310;52.198;5.422;2023-02-22T08:32:47;69.22;;;27.52;;
64842;SDS011;51310;52.198;5.422;2023-02-22T08:35:15;68.13;;;27.60;;
64842;SDS011;51310;52.198;5.422;2023-02-22T08:37:44;64.72;;;26.58;;
64842;SDS011;51310;52.198;5.422;2023-02-22T08:40:17;62.50;;;26.10;;
64842;SDS011;51310;52.198;5.422;2023-02-22T08:42:46;64.78;;;25.80;;
64842;SDS011;51310;52.198;5.422;2023-02-22T08:45:12;63.22;;;25.92;;
64842;SDS011;51310;52.198;5.422;2023-02-22T08:47:39;60.67;;;26.30;;
64842;SDS011;51310;52.198;5.422;2023-02-22T08:50:06;61.08;;;25.73;;
64842;SDS011;51310;52.198;5.422;2023-02-22T08:52:33;58.92;;;24.95;;
64842;SDS011;51310;52.198;5.422;2023-02-22T08:54:59;60.80;;;24.58;;
64842;SDS011;51310;52.198;5.422;2023-02-22T08:57:26;59.15;;;23.75;;
64842;SDS011;51310;52.198;5.422;2023-02-22T08:59:51;55.67;;;24.52;;
64842;SDS011;51310;52.198;5.422;2023-02-22T09:02:18;52.78;;;24.27;;
64842;SDS011;51310;52.198;5.422;2023-02-22T09:04:46;47.97;;;22.40;;
64842;SDS011;51310;52.198;5.422;2023-02-22T09:07:13;51.08;;;22.30;;
64842;SDS011;51310;52.198;5.422;2023-02-22T09:09:44;56.22;;;23.70;;
64842;SDS011;51310;52.198;5.422;2023-02-22T09:12:10;55.67;;;24.38;;
64842;SDS011;51310;52.198;5.422;2023-02-22T09:14:36;54.30;;;23.63;;
64842;SDS011;51310;52.198;5.422;2023-02-22T09:17:03;58.17;;;23.70;;
64842;SDS011;51310;52.198;5.422;2023-02-22T09:19:29;48.50;;;22.80;;
64842;SDS011;51310;52.198;5.422;2023-02-22T09:21:55;58.67;;;24.67;;
64842;SDS011;51310;52.198;5.422;2023-02-22T09:24:23;53.72;;;23.38;;
64842;SDS011;51310;52.198;5.422;2023-02-22T09:26:49;47.83;;;23.20;;
64842;SDS011;51310;52.198;5.422;2023-02-22T09:29:21;48.10;;;22.65;;
64842;SDS011;51310;52.198;5.422;2023-02-22T09:31:50;44.47;;;21.23;;
64842;SDS011;51310;52.198;5.422;2023-02-22T09:34:19;44.45;;;21.85;;
64842;SDS011;51310;52.198;5.422;2023-02-22T09:36:52;45.97;;;21.48;;
64842;SDS011;51310;52.198;5.422;2023-02-22T09:39:18;42.93;;;20.83;;
64842;SDS011;51310;52.198;5.422;2023-02-22T09:47:23;37.13;;;19.73;;
64842;SDS011;51310;52.198;5.422;2023-02-22T09:50:05;39.70;;;19.63;;
64842;SDS011;51310;52.198;5.422;2023-02-22T09:52:59;37.78;;;19.40;;
64842;SDS011;51310;52.198;5.422;2023-02-22T09:55:38;39.78;;;20.25;;
64842;SDS011;51310;52.198;5.422;2023-02-22T09:58:19;41.78;;;18.88;;
64842;SDS011;51310;52.198;5.422;2023-02-22T10:09:54;39.42;;;19.85;;
64842;SDS011;51310;52.198;5.422;2023-02-22T10:12:29;37.60;;;19.60;;
64842;SDS011;51310;52.198;5.422;2023-02-22T10:15:25;38.30;;;19.65;;
64842;SDS011;51310;52.198;5.422;2023-02-22T10:24:51;44.97;;;22.10;;
64842;SDS011;51310;52.198;5.422;2023-02-22T10:27:39;42.25;;;19.90;;
64842;SDS011;51310;52.198;5.422;2023-02-22T10:33:00;41.83;;;19.48;;
64842;SDS011;51310;52.198;5.422;2023-02-22T10:35:44;43.65;;;20.98;;
64842;SDS011;51310;52.198;5.422;2023-02-22T10:38:22;41.83;;;20.07;;
64842;SDS011;51310;52.198;5.422;2023-02-22T10:41:01;38.20;;;18.70;;
64842;SDS011;51310;52.198;5.422;2023-02-22T10:43:37;39.67;;;20.17;;
64842;SDS011;51310;52.198;5.422;2023-02-22T10:46:06;39.08;;;19.10;;
64842;SDS011;51310;52.198;5.422;2023-02-22T10:48:36;42.95;;;21.38;;
64842;SDS011;51310;52.198;5.422;2023-02-22T10:51:07;40.40;;;19.67;;
64842;SDS011;51310;52.198;5.422;2023-02-22T10:53:35;42.50;;;20.77;;
64842;SDS011;51310;52.198;5.422;2023-02-22T10:56:20;42.00;;;20.55;;
64842;SDS011;51310;52.198;5.422;2023-02-22T11:01:27;39.22;;;19.65;;
64842;SDS011;51310;52.198;5.422;2023-02-22T11:04:11;40.53;;;20.20;;
64842;SDS011;51310;52.198;5.422;2023-02-22T11:06:43;41.23;;;20.50;;
64842;SDS011;51310;52.198;5.422;2023-02-22T11:09:13;36.30;;;19.40;;
64842;SDS011;51310;52.198;5.422;2023-02-22T11:11:43;39.72;;;19.77;;
64842;SDS011;51310;52.198;5.422;2023-02-22T11:14:13;39.90;;;20.00;;
64842;SDS011;51310;52.198;5.422;2023-02-22T11:16:52;35.40;;;18.42;;
64842;SDS011;51310;52.198;5.422;2023-02-22T11:19:21;37.78;;;18.77;;
64842;SDS011;51310;52.198;5.422;2023-02-22T11:21:52;42.00;;;20.17;;
64842;SDS011;51310;52.198;5.422;2023-02-22T11:24:25;36.73;;;19.00;;
64842;SDS011;51310;52.198;5.422;2023-02-22T11:26:55;41.55;;;19.33;;
64842;SDS011;51310;52.198;5.422;2023-02-22T11:29:27;41.60;;;20.17;;
64842;SDS011;51310;52.198;5.422;2023-02-22T11:32:15;40.92;;;19.13;;
64842;SDS011;51310;52.198;5.422;2023-02-22T11:34:46;40.35;;;19.58;;
64842;SDS011;51310;52.198;5.422;2023-02-22T11:39:46;40.42;;;19.48;;
64842;SDS011;51310;52.198;5.422;2023-02-22T11:42:25;39.33;;;19.30;;
64842;SDS011;51310;52.198;5.422;2023-02-22T11:47:55;35.45;;;18.13;;
64842;SDS011;51310;52.198;5.422;2023-02-22T11:50:32;37.17;;;18.88;;
64842;SDS011;51310;52.198;5.422;2023-02-22T11:56:12;36.33;;;18.40;;
64842;SDS011;51310;52.198;5.422;2023-02-22T11:59:12;39.38;;;18.90;;
64842;SDS011;51310;52.198;5.422;2023-02-22T12:02:07;40.88;;;18.67;;
64842;SDS011;51310;52.198;5.422;2023-02-22T12:05:07;36.53;;;18.00;;
64842;SDS011;51310;52.198;5.422;2023-02-22T12:08:24;37.75;;;18.17;;
64842;SDS011;51310;52.198;5.422;2023-02-22T12:19:40;38.88;;;18.80;;
64842;SDS011;51310;52.198;5.422;2023-02-22T12:22:18;36.72;;;17.30;;
64842;SDS011;51310;52.198;5.422;2023-02-22T12:24:59;36.70;;;16.77;;
64842;SDS011;51310;52.198;5.422;2023-02-22T12:28:15;41.03;;;19.77;;
64842;SDS011;51310;52.198;5.422;2023-02-22T12:31:00;39.95;;;18.40;;
64842;SDS011;51310;52.198;5.422;2023-02-22T12:33:42;37.60;;;18.02;;
64842;SDS011;51310;52.198;5.422;2023-02-22T12:36:37;37.63;;;18.63;;
64842;SDS011;51310;52.198;5.422;2023-02-22T12:41:53;45.33;;;20.13;;
64842;SDS011;51310;52.198;5.422;2023-02-22T12:44:42;39.17;;;18.95;;
64842;SDS011;51310;52.198;5.422;2023-02-22T12:47:13;33.83;;;18.10;;
64842;SDS011;51310;52.198;5.422;2023-02-22T12:49:55;39.63;;;18.27;;
64842;SDS011;51310;52.198;5.422;2023-02-22T12:52:52;37.78;;;17.38;;
64842;SDS011;51310;52.198;5.422;2023-02-22T12:55:42;41.97;;;17.45;;
64842;SDS011;51310;52.198;5.422;2023-02-22T12:58:26;39.53;;;18.17;;
64842;SDS011;51310;52.198;5.422;2023-02-22T13:01:10;36.97;;;18.52;;
64842;SDS011;51310;52.198;5.422;2023-02-22T13:03:43;37.97;;;18.00;;
64842;SDS011;51310;52.198;5.422;2023-02-22T13:12:18;38.88;;;18.88;;
64842;SDS011;51310;52.198;5.422;2023-02-22T13:25:00;36.85;;;18.08;;
64842;SDS011;51310;52.198;5.422;2023-02-22T13:27:38;35.70;;;17.67;;
64842;SDS011;51310;52.198;5.422;2023-02-22T13:44:45;36.97;;;17.83;;
64842;SDS011;51310;52.198;5.422;2023-02-22T13:47:56;36.72;;;17.83;;
64842;SDS011;51310;52.198;5.422;2023-02-22T13:54:00;39.93;;;19.07;;
64842;SDS011;51310;52.198;5.422;2023-02-22T13:56:42;37.22;;;19.30;;
64842;SDS011;51310;52.198;5.422;2023-02-22T13:59:32;38.38;;;19.15;;
64842;SDS011;51310;52.198;5.422;2023-02-22T14:02:02;35.22;;;17.75;;
64842;SDS011;51310;52.198;5.422;2023-02-22T14:17:56;33.25;;;17.65;;
64842;SDS011;51310;52.198;5.422;2023-02-22T14:20:34;38.85;;;18.23;;
64842;SDS011;51310;52.198;5.422;2023-02-22T14:26:17;42.05;;;19.98;;
64842;SDS011;51310;52.198;5.422;2023-02-22T14:29:13;38.60;;;18.45;;
64842;SDS011;51310;52.198;5.422;2023-02-22T14:34:18;36.60;;;19.40;;
64842;SDS011;51310;52.198;5.422;2023-02-22T14:37:15;39.70;;;19.25;;
64842;SDS011;51310;52.198;5.422;2023-02-22T14:39:49;35.47;;;18.08;;
64842;SDS011;51310;52.198;5.422;2023-02-22T14:42:36;35.05;;;18.75;;
64842;SDS011;51310;52.198;5.422;2023-02-22T14:45:25;33.83;;;18.25;;
64842;SDS011;51310;52.198;5.422;2023-02-22T14:48:17;35.58;;;18.55;;
64842;SDS011;51310;52.198;5.422;2023-02-22T14:51:33;34.43;;;18.20;;
64842;SDS011;51310;52.198;5.422;2023-02-22T14:53:55;32.10;;;16.50;;
64842;SDS011;51310;52.198;5.422;2023-02-22T14:56:41;35.05;;;17.17;;
64842;SDS011;51310;52.198;5.422;2023-02-22T14:59:25;30.77;;;17.35;;
64842;SDS011;51310;52.198;5.422;2023-02-22T15:04:51;30.55;;;16.73;;
64842;SDS011;51310;52.198;5.422;2023-02-22T15:07:27;31.83;;;17.60;;
64842;SDS011;51310;52.198;5.422;2023-02-22T15:13:15;29.75;;;16.77;;
64842;SDS011;51310;52.198;5.422;2023-02-22T15:16:03;30.98;;;16.42;;
64842;SDS011;51310;52.198;5.422;2023-02-22T15:18:34;28.45;;;16.50;;
64842;SDS011;51310;52.198;5.422;2023-02-22T15:21:13;33.60;;;16.88;;
64842;SDS011;51310;52.198;5.422;2023-02-22T15:23:55;28.00;;;16.63;;
64842;SDS011;51310;52.198;5.422;2023-02-22T15:29:15;25.35;;;16.02;;
64842;SDS011;51310;52.198;5.422;2023-02-22T15:32:16;32.38;;;17.30;;
64842;SDS011;51310;52.198;5.422;2023-02-22T15:37:42;27.17;;;15.50;;
64842;SDS011;51310;52.198;5.422;2023-02-22T15:40:14;27.33;;;16.17;;
64842;SDS011;51310;52.198;5.422;2023-02-22T15:42:47;28.37;;;16.10;;
64842;SDS011;51310;52.198;5.422;2023-02-22T15:45:19;29.00;;;16.70;;
64842;SDS011;51310;52.198;5.422;2023-02-22T15:47:48;26.58;;;15.57;;
64842;SDS011;51310;52.198;5.422;2023-02-22T15:50:18;32.33;;;17.05;;
64842;SDS011;51310;52.198;5.422;2023-02-22T15:53:07;28.35;;;16.30;;
64842;SDS011;51310;52.198;5.422;2023-02-22T15:55:45;28.30;;;16.65;;
64842;SDS011;51310;52.198;5.422;2023-02-22T16:00:40;28.97;;;15.67;;
64842;SDS011;51310;52.198;5.422;2023-02-22T16:03:09;29.13;;;16.30;;
64842;SDS011;51310;52.198;5.422;2023-02-22T16:05:44;25.92;;;15.65;;
64842;SDS011;51310;52.198;5.422;2023-02-22T16:08:20;29.55;;;16.15;;
64842;SDS011;51310;52.198;5.422;2023-02-22T16:11:15;26.48;;;17.02;;
64842;SDS011;51310;52.198;5.422;2023-02-22T16:13:58;29.80;;;16.57;;
64842;SDS011;51310;52.198;5.422;2023-02-22T16:16:30;26.83;;;16.20;;
64842;SDS011;51310;52.198;5.422;2023-02-22T16:19:21;27.70;;;15.57;;
64842;SDS011;51310;52.198;5.422;2023-02-22T16:22:03;28.57;;;16.07;;
64842;SDS011;51310;52.198;5.422;2023-02-22T16:24:37;28.27;;;16.88;;
64842;SDS011;51310;52.198;5.422;2023-02-22T16:27:13;30.33;;;17.73;;
64842;SDS011;51310;52.198;5.422;2023-02-22T16:29:44;30.88;;;17.55;;
64842;SDS011;51310;52.198;5.422;2023-02-22T16:32:32;30.80;;;17.10;;
64842;SDS011;51310;52.198;5.422;2023-02-22T16:34:57;32.57;;;17.57;;
64842;SDS011;51310;52.198;5.422;2023-02-22T16:37:23;30.53;;;18.27;;
64842;SDS011;51310;52.198;5.422;2023-02-22T16:39:49;30.80;;;18.43;;
64842;SDS011;51310;52.198;5.422;2023-02-22T16:42:17;31.35;;;19.48;;
64842;SDS011;51310;52.198;5.422;2023-02-22T16:44:51;30.45;;;19.38;;
64842;SDS011;51310;52.198;5.422;2023-02-22T16:47:18;31.50;;;18.40;;
64842;SDS011;51310;52.198;5.422;2023-02-22T16:49:47;32.28;;;19.85;;
64842;SDS011;51310;52.198;5.422;2023-02-22T16:52:16;33.05;;;20.10;;
64842;SDS011;51310;52.198;5.422;2023-02-22T16:54:43;31.90;;;20.30;;
64842;SDS011;51310;52.198;5.422;2023-02-22T16:57:19;33.03;;;20.23;;
64842;SDS011;51310;52.198;5.422;2023-02-22T16:59:46;31.58;;;18.33;;
64842;SDS011;51310;52.198;5.422;2023-02-22T17:02:16;29.50;;;19.05;;
64842;SDS011;51310;52.198;5.422;2023-02-22T17:04:43;34.22;;;19.17;;
64842;SDS011;51310;52.198;5.422;2023-02-22T17:07:14;33.97;;;19.90;;
64842;SDS011;51310;52.198;5.422;2023-02-22T17:09:45;30.08;;;20.58;;
64842;SDS011;51310;52.198;5.422;2023-02-22T17:12:11;34.37;;;19.70;;
64842;SDS011;51310;52.198;5.422;2023-02-22T17:14:37;31.93;;;19.87;;
64842;SDS011;51310;52.198;5.422;2023-02-22T17:17:05;36.22;;;21.17;;
64842;SDS011;51310;52.198;5.422;2023-02-22T17:19:33;36.20;;;20.88;;
64842;SDS011;51310;52.198;5.422;2023-02-22T17:21:58;37.23;;;22.60;;
64842;SDS011;51310;52.198;5.422;2023-02-22T17:24:29;37.28;;;22.35;;
64842;SDS011;51310;52.198;5.422;2023-02-22T17:26:57;38.83;;;23.30;;
64842;SDS011;51310;52.198;5.422;2023-02-22T17:29:25;38.35;;;23.30;;
64842;SDS011;51310;52.198;5.422;2023-02-22T17:31:54;37.10;;;23.17;;